Time,TemperatureF,DewpointF,PressureIn,WindDirection,WindDirectionDegrees,WindSpeedMPH,WindSpeedGustMPH,Humidity,HourlyPrecipIn,Conditions,Clouds,dailyrainin,SoftwareType,DateUTC
2013-06-13 00:01:00,77.5,72.0,29.96,North,0,0.0,0.0,83,0.00,,,0.00,WUHU21623XXSP,2013-06-13 04:01:00,
2013-06-13 00:06:00,77.7,72.1,29.96,SSW,202,0.0,0.0,83,0.00,,,0.00,WUHU21623XXSP,2013-06-13 04:06:00,
2013-06-13 00:11:00,77.7,71.8,29.96,South,180,0.0,0.0,82,0.00,,,0.00,WUHU21623XXSP,2013-06-13 04:11:00,
2013-06-13 00:16:00,78.1,72.1,29.96,West,270,0.0,0.0,82,0.00,,,0.00,WUHU21623XXSP,2013-06-13 04:16:00,
2013-06-13 00:21:00,78.1,71.8,29.96,SSW,202,0.0,0.0,81,0.00,,,0.00,WUHU21623XXSP,2013-06-13 04:21:00,
2013-06-13 00:26:00,78.1,71.8,29.96,South,180,0.0,0.0,81,0.00,,,0.00,WUHU21623XXSP,2013-06-13 04:26:00,
2013-06-13 00:31:00,77.9,71.6,29.96,SSW,202,0.0,0.0,81,0.00,,,0.00,WUHU21623XXSP,2013-06-13 04:31:00,
2013-06-13 00:36:00,77.9,71.6,29.96,SSW,202,0.0,0.0,81,0.00,,,0.00,WUHU21623XXSP,2013-06-13 04:36:00,
2013-06-13 00:41:00,77.9,71.6,29.96,NNE,22,0.0,0.0,81,0.00,,,0.00,WUHU21623XXSP,2013-06-13 04:41:00,
2013-06-13 00:46:00,77.7,71.4,29.96,WNW,292,0.0,0.0,81,0.00,,,0.00,WUHU21623XXSP,2013-06-13 04:46:00,
2013-06-13 00:51:00,77.5,71.2,29.96,West,270,0.0,0.0,81,0.00,,,0.00,WUHU21623XXSP,2013-06-13 04:51:00,
2013-06-13 00:56:00,77.5,71.6,29.96,SSW,202,0.0,0.0,82,0.00,,,0.00,WUHU21623XXSP,2013-06-13 04:56:00,
2013-06-13 01:01:00,77.5,71.6,29.96,SSW,202,0.0,0.0,82,0.00,,,0.00,WUHU21623XXSP,2013-06-13 05:01:00,
2013-06-13 01:06:00,77.5,71.6,29.97,South,180,0.0,0.0,82,0.00,,,0.00,WUHU21623XXSP,2013-06-13 05:06:00,
2013-06-13 01:11:00,77.2,71.2,29.96,SSW,202,0.0,0.0,82,0.00,,,0.00,WUHU21623XXSP,2013-06-13 05:11:00,
2013-06-13 01:16:00,77.2,71.6,29.96,West,270,0.0,0.0,83,0.00,,,0.00,WUHU21623XXSP,2013-06-13 05:16:00,
2013-06-13 01:21:00,77.0,71.4,29.96,SSW,202,0.0,0.0,83,0.00,,,0.00,WUHU21623XXSP,2013-06-13 05:21:00,
2013-06-13 01:26:00,76.8,70.9,29.96,SSW,202,0.0,0.0,82,0.00,,,0.00,WUHU21623XXSP,2013-06-13 05:26:00,
2013-06-13 01:31:00,76.8,70.9,29.96,South,180,0.0,0.0,82,0.00,,,0.00,WUHU21623XXSP,2013-06-13 05:31:00,
2013-06-13 01:36:00,76.8,71.2,29.96,SSW,202,0.0,0.0,83,0.00,,,0.00,WUHU21623XXSP,2013-06-13 05:36:00,
2013-06-13 01:41:00,76.6,71.1,29.96,West,270,0.0,0.0,83,0.00,,,0.00,WUHU21623XXSP,2013-06-13 05:41:00,
2013-06-13 01:46:00,76.6,71.1,29.96,West,270,0.0,0.0,83,0.00,,,0.00,WUHU21623XXSP,2013-06-13 05:46:00,
2013-06-13 01:52:00,76.5,70.9,29.96,South,180,0.0,0.0,83,0.00,,,0.00,WUHU21623XXSP,2013-06-13 05:52:00,
2013-06-13 01:57:00,76.3,70.7,29.96,West,270,0.0,0.0,83,0.00,,,0.00,WUHU21623XXSP,2013-06-13 05:57:00,
2013-06-13 02:02:00,76.1,70.9,29.96,SSW,202,0.0,0.0,84,0.00,,,0.00,WUHU21623XXSP,2013-06-13 06:02:00,
2013-06-13 02:07:00,76.1,70.9,29.96,SSW,202,0.0,0.0,84,0.00,,,0.00,WUHU21623XXSP,2013-06-13 06:07:00,
2013-06-13 02:12:00,75.9,70.8,29.96,South,180,0.0,0.0,84,0.00,,,0.00,WUHU21623XXSP,2013-06-13 06:12:00,
2013-06-13 02:17:00,75.9,70.8,29.96,SSW,202,0.9,3.0,84,0.00,,,0.00,WUHU21623XXSP,2013-06-13 06:17:00,
2013-06-13 02:22:00,76.1,70.9,29.96,East,90,0.0,3.0,84,0.00,,,0.00,WUHU21623XXSP,2013-06-13 06:22:00,
2013-06-13 02:27:00,76.1,70.6,29.96,SSW,202,0.0,1.0,83,0.00,,,0.00,WUHU21623XXSP,2013-06-13 06:27:00,
2013-06-13 02:32:00,75.9,70.8,29.96,North,0,0.0,0.0,84,0.00,,,0.00,WUHU21623XXSP,2013-06-13 06:32:00,
2013-06-13 02:37:00,75.6,70.4,29.96,North,0,0.0,0.0,84,0.00,,,0.00,WUHU21623XXSP,2013-06-13 06:37:00,
2013-06-13 02:42:00,75.2,70.1,29.96,NNE,22,0.0,0.0,84,0.00,,,0.00,WUHU21623XXSP,2013-06-13 06:42:00,
2013-06-13 02:47:00,75.0,69.9,29.96,ESE,112,0.0,0.0,84,0.00,,,0.00,WUHU21623XXSP,2013-06-13 06:47:00,
2013-06-13 02:52:00,75.0,69.9,29.96,NNE,22,0.0,0.0,84,0.00,,,0.00,WUHU21623XXSP,2013-06-13 06:52:00,
2013-06-13 02:57:00,74.8,70.1,29.96,East,90,0.0,0.0,85,0.00,,,0.00,WUHU21623XXSP,2013-06-13 06:57:00,
2013-06-13 03:02:00,74.5,69.7,29.96,East,90,0.0,0.0,85,0.00,,,0.00,WUHU21623XXSP,2013-06-13 07:02:00,
2013-06-13 03:07:00,74.1,69.3,29.96,East,90,0.0,0.0,85,0.00,,,0.00,WUHU21623XXSP,2013-06-13 07:07:00,
2013-06-13 03:12:00,74.1,69.3,29.96,NNE,22,0.0,0.0,85,0.00,,,0.00,WUHU21623XXSP,2013-06-13 07:12:00,
2013-06-13 03:17:00,74.1,69.3,29.96,NNE,22,0.0,0.0,85,0.00,,,0.00,WUHU21623XXSP,2013-06-13 07:17:00,
2013-06-13 03:22:00,73.8,69.0,29.97,East,90,0.0,0.0,85,0.00,,,0.00,WUHU21623XXSP,2013-06-13 07:22:00,
2013-06-13 03:27:00,73.6,68.8,29.96,North,0,0.0,0.0,85,0.00,,,0.00,WUHU21623XXSP,2013-06-13 07:27:00,
2013-06-13 03:32:00,73.6,68.8,29.96,East,90,1.7,1.9,85,0.00,,,0.00,WUHU21623XXSP,2013-06-13 07:32:00,
2013-06-13 03:37:00,73.4,69.0,29.96,NNE,22,0.0,1.9,86,0.00,,,0.00,WUHU21623XXSP,2013-06-13 07:37:00,
2013-06-13 03:42:00,73.2,68.8,29.96,East,90,0.0,1.9,86,0.00,,,0.00,WUHU21623XXSP,2013-06-13 07:42:00,
2013-06-13 03:47:00,73.0,68.6,29.96,NNE,22,1.4,1.7,86,0.00,,,0.00,WUHU21623XXSP,2013-06-13 07:47:00,
2013-06-13 03:52:00,72.5,68.1,29.96,East,90,0.0,1.7,86,0.00,,,0.00,WUHU21623XXSP,2013-06-13 07:52:00,
2013-06-13 03:57:00,72.3,67.9,29.95,East,90,0.0,1.7,86,0.00,,,0.00,WUHU21623XXSP,2013-06-13 07:57:00,
2013-06-13 04:02:00,72.3,68.2,29.95,East,90,0.0,0.0,87,0.00,,,0.00,WUHU21623XXSP,2013-06-13 08:02:00,
2013-06-13 04:07:00,72.5,68.4,29.95,East,90,1.2,1.9,87,0.00,,,0.00,WUHU21623XXSP,2013-06-13 08:07:00,
2013-06-13 04:12:00,72.7,68.3,29.95,East,90,0.0,1.9,86,0.00,,,0.00,WUHU21623XXSP,2013-06-13 08:12:00,
2013-06-13 04:17:00,72.9,68.4,29.95,NNE,22,1.2,1.3,86,0.00,,,0.00,WUHU21623XXSP,2013-06-13 08:17:00,
2013-06-13 04:22:00,73.2,68.8,29.94,East,90,0.0,1.3,86,0.00,,,0.00,WUHU21623XXSP,2013-06-13 08:22:00,
2013-06-13 04:27:00,73.2,68.8,29.95,East,90,0.0,0.0,86,0.00,,,0.00,WUHU21623XXSP,2013-06-13 08:27:00,
2013-06-13 04:32:00,73.0,68.6,29.95,East,90,2.6,3.0,86,0.00,,,0.00,WUHU21623XXSP,2013-06-13 08:32:00,
2013-06-13 04:37:00,72.9,68.4,29.95,ESE,112,1.4,3.0,86,0.00,,,0.00,WUHU21623XXSP,2013-06-13 08:37:00,
2013-06-13 04:43:00,72.9,68.4,29.94,NNE,22,0.0,1.7,86,0.00,,,0.00,WUHU21623XXSP,2013-06-13 08:43:00,
2013-06-13 04:48:00,72.9,68.4,29.95,ESE,112,0.0,1.9,86,0.00,,,0.00,WUHU21623XXSP,2013-06-13 08:48:00,
2013-06-13 04:53:00,72.7,68.3,29.94,ESE,112,0.0,1.9,86,0.00,,,0.00,WUHU21623XXSP,2013-06-13 08:53:00,
2013-06-13 04:58:00,72.7,68.3,29.94,ESE,112,0.0,0.0,86,0.00,,,0.00,WUHU21623XXSP,2013-06-13 08:58:00,
2013-06-13 05:03:00,72.9,68.4,29.94,South,180,0.0,0.0,86,0.00,,,0.00,WUHU21623XXSP,2013-06-13 09:03:00,
2013-06-13 05:08:00,73.2,68.8,29.94,NNE,22,0.0,0.0,86,0.00,,,0.00,WUHU21623XXSP,2013-06-13 09:08:00,
2013-06-13 05:13:00,73.6,68.8,29.94,West,270,0.0,0.0,85,0.00,,,0.00,WUHU21623XXSP,2013-06-13 09:13:00,
2013-06-13 05:18:00,73.8,69.0,29.93,SSW,202,1.4,1.7,85,0.00,,,0.00,WUHU21623XXSP,2013-06-13 09:18:00,
2013-06-13 05:23:00,73.9,69.2,29.93,South,180,0.0,1.7,85,0.00,,,0.00,WUHU21623XXSP,2013-06-13 09:23:00,
2013-06-13 05:28:00,74.1,69.3,29.93,West,270,2.9,3.3,85,0.00,,,0.00,WUHU21623XXSP,2013-06-13 09:28:00,
2013-06-13 05:33:00,74.5,69.4,29.93,North,0,2.1,3.3,84,0.00,,,0.00,WUHU21623XXSP,2013-06-13 09:33:00,
2013-06-13 05:38:00,74.5,69.4,29.93,East,90,0.0,3.3,84,0.00,,,0.00,WUHU21623XXSP,2013-06-13 09:38:00,
2013-06-13 05:43:00,74.5,69.4,29.93,NNE,22,0.0,2.4,84,0.00,,,0.00,WUHU21623XXSP,2013-06-13 09:43:00,
2013-06-13 05:48:00,74.5,69.4,29.94,ESE,112,0.0,0.0,84,0.00,,,0.00,WUHU21623XXSP,2013-06-13 09:48:00,
2013-06-13 05:53:00,74.3,69.2,29.93,NNE,22,1.7,1.9,84,0.00,,,0.00,WUHU21623XXSP,2013-06-13 09:53:00,
2013-06-13 05:58:00,74.1,69.0,29.93,ESE,112,1.4,1.9,84,0.00,,,0.00,WUHU21623XXSP,2013-06-13 09:58:00,
2013-06-13 06:03:00,74.1,69.0,29.92,ESE,112,0.0,1.9,84,0.00,,,0.00,WUHU21623XXSP,2013-06-13 10:03:00,
2013-06-13 06:08:00,74.1,69.3,29.92,ESE,112,0.0,0.0,85,0.00,,,0.00,WUHU21623XXSP,2013-06-13 10:08:00,
2013-06-13 06:13:00,74.1,69.3,29.92,East,90,0.0,0.0,85,0.00,,,0.00,WUHU21623XXSP,2013-06-13 10:13:00,
2013-06-13 06:18:00,74.1,69.3,29.92,ESE,112,1.7,3.0,85,0.00,,,0.00,WUHU21623XXSP,2013-06-13 10:18:00,
2013-06-13 06:23:00,74.1,69.3,29.92,South,180,0.0,3.0,85,0.00,,,0.00,WUHU21623XXSP,2013-06-13 10:23:00,
2013-06-13 06:28:00,73.9,69.2,29.92,SSW,202,0.0,1.9,85,0.00,,,0.00,WUHU21623XXSP,2013-06-13 10:28:00,
2013-06-13 06:33:00,73.8,69.0,29.92,West,270,0.0,0.0,85,0.00,,,0.00,WUHU21623XXSP,2013-06-13 10:33:00,
2013-06-13 06:38:00,73.8,69.0,29.92,SSW,202,0.0,1.9,85,0.00,,,0.00,WUHU21623XXSP,2013-06-13 10:38:00,
2013-06-13 06:43:00,73.8,69.0,29.92,East,90,0.0,1.9,85,0.00,,,0.00,WUHU21623XXSP,2013-06-13 10:43:00,
2013-06-13 06:48:00,73.9,69.2,29.92,ESE,112,0.0,0.0,85,0.00,,,0.00,WUHU21623XXSP,2013-06-13 10:48:00,
2013-06-13 06:53:00,73.9,69.2,29.91,South,180,0.0,1.3,85,0.00,,,0.00,WUHU21623XXSP,2013-06-13 10:53:00,
2013-06-13 06:58:00,74.1,69.3,29.92,East,90,1.7,1.9,85,0.00,,,0.00,WUHU21623XXSP,2013-06-13 10:58:00,
2013-06-13 07:03:00,74.1,69.3,29.92,ESE,112,0.0,1.9,85,0.00,,,0.00,WUHU21623XXSP,2013-06-13 11:03:00,
2013-06-13 07:08:00,74.1,69.3,29.92,West,270,2.3,2.7,85,0.00,,,0.00,WUHU21623XXSP,2013-06-13 11:08:00,
2013-06-13 07:13:00,74.3,69.5,29.92,West,270,0.0,2.7,85,0.00,,,0.00,WUHU21623XXSP,2013-06-13 11:13:00,
2013-06-13 07:18:00,74.3,69.5,29.92,SSW,202,0.0,2.7,85,0.00,,,0.00,WUHU21623XXSP,2013-06-13 11:18:00,
2013-06-13 07:23:00,74.3,69.5,29.92,South,180,0.0,1.9,85,0.00,,,0.00,WUHU21623XXSP,2013-06-13 11:23:00,
2013-06-13 07:28:00,74.3,69.5,29.92,ESE,112,0.0,1.9,85,0.00,,,0.00,WUHU21623XXSP,2013-06-13 11:28:00,
2013-06-13 07:33:00,74.3,69.5,29.92,South,180,0.0,0.0,85,0.00,,,0.00,WUHU21623XXSP,2013-06-13 11:33:00,
2013-06-13 07:38:00,74.5,69.7,29.92,ESE,112,1.7,1.9,85,0.00,,,0.00,WUHU21623XXSP,2013-06-13 11:38:00,
2013-06-13 07:44:00,74.8,70.1,29.91,East,90,0.0,2.7,85,0.00,,,0.00,WUHU21623XXSP,2013-06-13 11:44:00,
2013-06-13 07:49:00,75.0,70.3,29.92,East,90,0.9,2.7,85,0.00,,,0.00,WUHU21623XXSP,2013-06-13 11:49:00,
2013-06-13 07:54:00,75.4,70.6,29.91,ESE,112,0.0,1.0,85,0.00,,,0.00,WUHU21623XXSP,2013-06-13 11:54:00,
2013-06-13 07:59:00,75.6,70.4,29.91,ESE,112,0.0,1.0,84,0.00,,,0.00,WUHU21623XXSP,2013-06-13 11:59:00,
2013-06-13 08:04:00,75.7,70.6,29.92,ESE,112,0.0,1.7,84,0.00,,,0.00,WUHU21623XXSP,2013-06-13 12:04:00,
2013-06-13 08:09:00,75.9,70.8,29.91,ESE,112,0.0,1.7,84,0.00,,,0.00,WUHU21623XXSP,2013-06-13 12:09:00,
2013-06-13 08:14:00,76.6,71.1,29.91,SSW,202,1.4,1.7,83,0.00,,,0.00,WUHU21623XXSP,2013-06-13 12:14:00,
2013-06-13 08:19:00,77.4,71.8,29.91,South,180,0.0,1.7,83,0.00,,,0.00,WUHU21623XXSP,2013-06-13 12:19:00,
2013-06-13 08:24:00,77.7,71.8,29.91,South,180,1.2,1.7,82,0.00,,,0.00,WUHU21623XXSP,2013-06-13 12:24:00,
2013-06-13 08:29:00,77.9,72.0,29.91,West,270,1.4,1.7,82,0.00,,,0.00,WUHU21623XXSP,2013-06-13 12:29:00,
2013-06-13 08:34:00,77.9,72.0,29.91,SSW,202,0.0,1.7,82,0.00,,,0.00,WUHU21623XXSP,2013-06-13 12:34:00,
2013-06-13 08:39:00,78.1,71.8,29.91,SSW,202,1.7,1.9,81,0.00,,,0.00,WUHU21623XXSP,2013-06-13 12:39:00,
2013-06-13 08:44:00,78.6,72.3,29.91,SSW,202,3.8,4.4,81,0.00,,,0.00,WUHU21623XXSP,2013-06-13 12:44:00,
2013-06-13 08:49:00,79.0,72.7,29.91,West,270,0.0,4.4,81,0.00,,,0.00,WUHU21623XXSP,2013-06-13 12:49:00,
2013-06-13 08:54:00,79.0,72.3,29.91,South,180,0.0,4.4,80,0.00,,,0.00,WUHU21623XXSP,2013-06-13 12:54:00,
2013-06-13 08:59:00,79.2,72.5,29.91,South,180,0.0,2.4,80,0.00,,,0.00,WUHU21623XXSP,2013-06-13 12:59:00,
2013-06-13 09:04:00,79.3,72.7,29.91,SSW,202,1.4,2.4,80,0.00,,,0.00,WUHU21623XXSP,2013-06-13 13:04:00,
2013-06-13 09:09:00,79.5,72.5,29.91,SSW,202,0.0,1.7,79,0.00,,,0.00,WUHU21623XXSP,2013-06-13 13:09:00,
2013-06-13 09:14:00,79.5,72.5,29.90,South,180,0.0,1.7,79,0.00,,,0.00,WUHU21623XXSP,2013-06-13 13:14:00,
2013-06-13 09:19:00,79.2,72.1,29.90,South,180,0.0,0.0,79,0.00,,,0.00,WUHU21623XXSP,2013-06-13 13:19:00,
2013-06-13 09:24:00,79.0,72.3,29.90,East,90,0.0,1.9,80,0.00,,,0.00,WUHU21623XXSP,2013-06-13 13:24:00,
2013-06-13 09:29:00,79.0,72.7,29.90,WNW,292,0.0,1.9,81,0.00,,,0.00,WUHU21623XXSP,2013-06-13 13:29:00,
2013-06-13 09:34:00,78.8,72.5,29.90,SSW,202,0.0,1.9,81,0.00,,,0.00,WUHU21623XXSP,2013-06-13 13:34:00,
2013-06-13 09:39:00,79.0,72.7,29.90,South,180,1.7,1.9,81,0.00,,,0.00,WUHU21623XXSP,2013-06-13 13:39:00,
2013-06-13 09:44:00,79.2,72.8,29.90,SSW,202,1.2,1.9,81,0.00,,,0.00,WUHU21623XXSP,2013-06-13 13:44:00,
2013-06-13 09:49:00,79.3,72.7,29.89,ESE,112,0.0,1.9,80,0.00,,,0.00,WUHU21623XXSP,2013-06-13 13:49:00,
2013-06-13 09:54:00,79.9,73.2,29.89,SSW,202,0.0,1.9,80,0.00,,,0.00,WUHU21623XXSP,2013-06-13 13:54:00,
2013-06-13 09:59:00,80.2,73.6,29.89,SSW,202,0.0,1.9,80,0.00,,,0.00,WUHU21623XXSP,2013-06-13 13:59:00,
2013-06-13 10:04:00,81.1,74.5,29.88,ESE,112,2.1,2.4,80,0.00,,,0.00,WUHU21623XXSP,2013-06-13 14:04:00,
2013-06-13 10:09:00,82.2,75.1,29.88,WNW,292,0.0,2.4,79,0.00,,,0.00,WUHU21623XXSP,2013-06-13 14:09:00,
2013-06-13 10:14:00,82.6,75.1,29.88,SSW,202,0.0,2.4,78,0.00,,,0.00,WUHU21623XXSP,2013-06-13 14:14:00,
2013-06-13 10:19:00,83.5,75.1,29.88,SSW,202,1.7,1.9,76,0.00,,,0.00,WUHU21623XXSP,2013-06-13 14:19:00,
2013-06-13 10:25:00,83.1,75.2,29.89,WNW,292,0.0,1.9,77,0.00,,,0.00,WUHU21623XXSP,2013-06-13 14:25:00,
2013-06-13 10:30:00,82.9,74.6,29.88,SSW,202,0.0,1.9,76,0.00,,,0.00,WUHU21623XXSP,2013-06-13 14:30:00,
2013-06-13 10:35:00,83.3,74.5,29.87,SSW,202,2.1,2.4,75,0.00,,,0.00,WUHU21623XXSP,2013-06-13 14:35:00,
2013-06-13 10:40:00,84.0,74.8,29.87,SSW,202,2.3,2.7,74,0.00,,,0.00,WUHU21623XXSP,2013-06-13 14:40:00,
2013-06-13 10:45:00,84.7,75.5,29.87,NNE,22,0.0,2.7,74,0.00,,,0.00,WUHU21623XXSP,2013-06-13 14:45:00,
2013-06-13 10:50:00,86.0,76.0,29.86,West,270,0.0,2.7,72,0.00,,,0.00,WUHU21623XXSP,2013-06-13 14:50:00,
2013-06-13 10:55:00,86.7,75.8,29.86,West,270,3.3,3.8,70,0.00,,,0.00,WUHU21623XXSP,2013-06-13 14:55:00,
2013-06-13 11:00:00,87.1,76.2,29.86,West,270,4.7,5.4,70,0.00,,,0.00,WUHU21623XXSP,2013-06-13 15:00:00,
2013-06-13 11:05:00,87.8,75.9,29.86,West,270,0.0,8.7,68,0.00,,,0.00,WUHU21623XXSP,2013-06-13 15:05:00,
2013-06-13 11:10:00,88.0,76.1,29.86,South,180,1.7,8.7,68,0.00,,,0.00,WUHU21623XXSP,2013-06-13 15:10:00,
2013-06-13 11:15:00,87.8,75.0,29.86,SSW,202,0.0,2.7,66,0.00,,,0.00,WUHU21623XXSP,2013-06-13 15:15:00,
2013-06-13 11:20:00,88.5,77.1,29.85,WNW,292,0.0,1.9,69,0.00,,,0.00,WUHU21623XXSP,2013-06-13 15:20:00,
2013-06-13 11:25:00,88.7,75.4,29.86,West,270,0.0,0.0,65,0.00,,,0.00,WUHU21623XXSP,2013-06-13 15:25:00,
2013-06-13 11:30:00,87.6,74.8,29.86,WNW,292,0.0,0.0,66,0.00,,,0.00,WUHU21623XXSP,2013-06-13 15:30:00,
2013-06-13 11:35:00,87.1,74.8,29.86,North,0,0.0,1.9,67,0.00,,,0.00,WUHU21623XXSP,2013-06-13 15:35:00,
2013-06-13 11:40:00,86.7,74.9,29.86,SSW,202,3.3,3.8,68,0.00,,,0.00,WUHU21623XXSP,2013-06-13 15:40:00,
2013-06-13 11:45:00,87.1,75.7,29.86,WNW,292,0.0,3.8,69,0.00,,,0.00,WUHU21623XXSP,2013-06-13 15:45:00,
2013-06-13 11:50:00,87.1,74.8,29.86,West,270,0.0,3.8,67,0.00,,,0.00,WUHU21623XXSP,2013-06-13 15:50:00,
2013-06-13 11:55:00,86.7,74.9,29.86,SSW,202,1.4,1.7,68,0.00,,,0.00,WUHU21623XXSP,2013-06-13 15:55:00,
2013-06-13 12:00:00,86.4,75.1,29.86,West,270,0.0,1.7,69,0.00,,,0.00,WUHU21623XXSP,2013-06-13 16:00:00,
2013-06-13 12:05:00,86.2,75.4,29.86,ESE,112,0.0,1.9,70,0.00,,,0.00,WUHU21623XXSP,2013-06-13 16:05:00,
2013-06-13 12:10:00,85.8,75.0,29.85,NNE,22,1.4,1.9,70,0.00,,,0.00,WUHU21623XXSP,2013-06-13 16:10:00,
2013-06-13 12:15:00,86.7,75.4,29.85,SSW,202,2.6,3.0,69,0.00,,,0.00,WUHU21623XXSP,2013-06-13 16:15:00,
2013-06-13 12:20:00,86.9,75.5,29.85,East,90,0.0,3.0,69,0.00,,,0.00,WUHU21623XXSP,2013-06-13 16:20:00,
2013-06-13 12:25:00,86.5,75.7,29.85,South,180,1.7,3.0,70,0.00,,,0.00,WUHU21623XXSP,2013-06-13 16:25:00,
2013-06-13 12:30:00,87.1,76.6,29.85,West,270,0.0,1.9,71,0.00,,,0.00,WUHU21623XXSP,2013-06-13 16:30:00,
2013-06-13 12:35:00,88.2,76.7,29.84,SSW,202,1.4,1.9,69,0.00,,,0.00,WUHU21623XXSP,2013-06-13 16:35:00,
2013-06-13 12:40:00,88.3,77.4,29.84,SSW,202,4.0,4.6,70,0.00,,,0.00,WUHU21623XXSP,2013-06-13 16:40:00,
2013-06-13 12:45:00,87.4,76.0,29.84,NNE,22,1.2,4.6,69,0.00,,,0.00,WUHU21623XXSP,2013-06-13 16:45:00,
2013-06-13 12:50:00,87.1,75.3,29.84,West,270,1.4,4.6,68,0.00,,,0.00,WUHU21623XXSP,2013-06-13 16:50:00,
2013-06-13 12:55:00,86.5,74.8,29.84,WNW,292,0.9,1.7,68,0.00,,,0.00,WUHU21623XXSP,2013-06-13 16:55:00,
2013-06-13 13:01:00,86.2,74.9,29.84,SSW,202,0.0,1.7,69,0.00,,,0.00,WUHU21623XXSP,2013-06-13 17:01:00,
2013-06-13 13:06:00,87.1,75.7,29.84,North,0,2.6,3.0,69,0.00,,,0.00,WUHU21623XXSP,2013-06-13 17:06:00,
2013-06-13 13:11:00,87.8,76.4,29.82,NNE,22,0.0,3.0,69,0.00,,,0.00,WUHU21623XXSP,2013-06-13 17:11:00,
2013-06-13 13:16:00,88.7,76.8,29.82,North,0,2.9,9.5,68,0.00,,,0.00,WUHU21623XXSP,2013-06-13 17:16:00,
2013-06-13 13:22:00,89.4,77.0,29.82,West,270,0.0,9.5,67,0.00,,,0.00,WUHU21623XXSP,2013-06-13 17:22:00,
2013-06-13 13:27:00,88.0,74.7,29.82,West,270,3.5,7.0,65,0.00,,,0.00,WUHU21623XXSP,2013-06-13 17:27:00,
2013-06-13 13:32:00,85.8,74.6,29.82,WNW,292,1.7,7.0,69,0.00,,,0.00,WUHU21623XXSP,2013-06-13 17:32:00,
2013-06-13 13:37:00,86.2,75.4,29.82,WNW,292,1.4,4.6,70,0.00,,,0.00,WUHU21623XXSP,2013-06-13 17:37:00,
2013-06-13 13:44:00,84.7,74.7,29.82,ESE,112,1.2,3.3,72,0.00,,,0.00,WUHU21623XXSP,2013-06-13 17:44:00,
2013-06-13 13:49:00,84.0,74.4,29.82,NNE,22,0.0,3.3,73,0.00,,,0.00,WUHU21623XXSP,2013-06-13 17:49:00,
2013-06-13 13:54:00,83.3,74.9,29.82,WNW,292,0.0,2.4,76,0.00,,,0.00,WUHU21623XXSP,2013-06-13 17:54:00,
2013-06-13 13:59:00,83.5,75.1,29.83,North,0,0.0,2.4,76,0.00,,,0.00,WUHU21623XXSP,2013-06-13 17:59:00,
2013-06-13 14:04:00,83.8,75.4,29.82,West,270,0.0,0.0,76,0.00,,,0.00,WUHU21623XXSP,2013-06-13 18:04:00,
2013-06-13 14:09:00,85.6,76.4,29.83,North,0,0.0,1.9,74,0.00,,,0.00,WUHU21623XXSP,2013-06-13 18:09:00,
2013-06-13 14:14:00,85.6,76.4,29.82,SSW,202,2.1,2.4,74,0.00,,,0.00,WUHU21623XXSP,2013-06-13 18:14:00,
2013-06-13 14:19:00,86.5,76.9,29.81,SSW,202,2.6,3.0,73,0.00,,,0.00,WUHU21623XXSP,2013-06-13 18:19:00,
2013-06-13 14:24:00,88.3,77.8,29.81,West,270,3.5,4.1,71,0.00,,,0.00,WUHU21623XXSP,2013-06-13 18:24:00,
2013-06-13 14:29:00,87.6,76.2,29.81,WNW,292,1.2,44.7,69,0.00,,,0.00,WUHU21623XXSP,2013-06-13 18:29:00,
2013-06-13 14:34:00,86.9,76.4,29.80,WNW,292,0.0,44.7,71,0.00,,,0.00,WUHU21623XXSP,2013-06-13 18:34:00,
2013-06-13 14:39:00,86.7,76.2,29.81,WNW,292,2.1,2.4,71,0.00,,,0.00,WUHU21623XXSP,2013-06-13 18:39:00,
2013-06-13 14:44:00,85.3,75.3,29.80,WNW,292,0.0,2.4,72,0.00,,,0.00,WUHU21623XXSP,2013-06-13 18:44:00,
2013-06-13 14:49:00,84.9,75.3,29.80,West,270,0.0,1.0,73,0.00,,,0.00,WUHU21623XXSP,2013-06-13 18:49:00,
2013-06-13 14:54:00,84.6,75.3,29.80,East,90,0.0,0.0,74,0.00,,,0.00,WUHU21623XXSP,2013-06-13 18:54:00,
2013-06-13 14:59:00,84.9,75.7,29.80,WNW,292,0.0,1.7,74,0.00,,,0.00,WUHU21623XXSP,2013-06-13 18:59:00,
2013-06-13 15:04:00,85.5,76.2,29.81,North,0,0.0,1.7,74,0.00,,,0.00,WUHU21623XXSP,2013-06-13 19:04:00,
2013-06-13 15:09:00,85.5,76.2,29.80,West,270,0.0,1.3,74,0.00,,,0.00,WUHU21623XXSP,2013-06-13 19:09:00,
2013-06-13 15:14:00,85.1,75.5,29.80,WNW,292,0.0,1.3,73,0.00,,,0.00,WUHU21623XXSP,2013-06-13 19:14:00,
2013-06-13 15:19:00,84.0,74.8,29.79,West,270,1.7,1.9,74,0.00,,,0.00,WUHU21623XXSP,2013-06-13 19:19:00,
2013-06-13 15:24:00,83.1,74.8,29.80,North,0,0.0,1.9,76,0.00,,,0.00,WUHU21623XXSP,2013-06-13 19:24:00,
2013-06-13 15:29:00,82.2,73.9,29.80,WNW,292,1.7,1.9,76,0.00,,,0.00,WUHU21623XXSP,2013-06-13 19:29:00,
2013-06-13 15:34:00,81.3,73.8,29.83,North,0,2.6,3.0,78,0.00,,,0.00,WUHU21623XXSP,2013-06-13 19:34:00,
2013-06-13 15:39:00,77.7,71.8,29.82,WNW,292,0.0,3.8,82,0.07,,,0.07,WUHU21623XXSP,2013-06-13 19:39:00,
2013-06-13 15:44:00,75.9,70.4,29.82,West,270,2.3,3.8,83,0.19,,,0.19,WUHU21623XXSP,2013-06-13 19:44:00,
2013-06-13 15:49:00,74.8,70.1,29.82,North,0,0.0,2.7,85,0.21,,,0.21,WUHU21623XXSP,2013-06-13 19:49:00,
2013-06-13 15:54:00,74.3,69.9,29.80,WNW,292,0.0,2.7,86,0.21,,,0.21,WUHU21623XXSP,2013-06-13 19:54:00,
2013-06-13 16:00:00,74.5,70.4,29.80,WNW,292,0.0,0.0,87,0.21,,,0.21,WUHU21623XXSP,2013-06-13 20:00:00,
2013-06-13 16:05:00,74.5,70.4,29.80,North,0,0.0,0.0,87,0.21,,,0.21,WUHU21623XXSP,2013-06-13 20:05:00,
2013-06-13 16:10:00,75.4,71.3,29.81,North,0,0.0,0.0,87,0.21,,,0.21,WUHU21623XXSP,2013-06-13 20:10:00,
2013-06-13 16:27:00,76.8,72.7,29.81,North,0,1.2,1.3,87,0.21,,,0.21,WUHU21623XXSP,2013-06-13 20:27:00,
2013-06-13 16:37:00,77.5,73.4,29.80,North,0,0.0,1.9,87,0.21,,,0.21,WUHU21623XXSP,2013-06-13 20:37:00,
2013-06-13 16:42:00,78.1,73.9,29.80,North,0,3.8,4.4,87,0.02,,,0.21,WUHU21623XXSP,2013-06-13 20:42:00,
2013-06-13 16:47:00,78.4,73.9,29.80,WNW,292,0.0,4.4,86,0.02,,,0.21,WUHU21623XXSP,2013-06-13 20:47:00,
2013-06-13 16:52:00,78.6,73.9,29.80,WNW,292,0.0,4.4,86,0.00,,,0.21,WUHU21623XXSP,2013-06-13 20:52:00,
2013-06-13 16:57:00,78.6,74.1,29.81,West,270,1.7,1.9,86,0.00,,,0.21,WUHU21623XXSP,2013-06-13 20:57:00,
2013-06-13 17:02:00,79.0,74.5,29.81,North,0,0.0,1.9,86,0.00,,,0.21,WUHU21623XXSP,2013-06-13 21:02:00,
2013-06-13 17:07:00,79.0,74.1,29.81,North,0,1.4,1.7,85,0.00,,,0.21,WUHU21623XXSP,2013-06-13 21:07:00,
2013-06-13 17:12:00,78.6,73.8,29.81,North,0,1.7,1.9,85,0.00,,,0.21,WUHU21623XXSP,2013-06-13 21:12:00,
2013-06-13 17:17:00,78.4,73.2,29.81,North,0,2.3,2.7,84,0.00,,,0.21,WUHU21623XXSP,2013-06-13 21:17:00,
2013-06-13 17:22:00,78.6,73.0,29.81,North,0,1.4,2.7,83,0.00,,,0.21,WUHU21623XXSP,2013-06-13 21:22:00,
2013-06-13 17:27:00,78.6,72.7,29.82,North,0,2.6,3.0,82,0.00,,,0.21,WUHU21623XXSP,2013-06-13 21:27:00,
2013-06-13 17:32:00,78.4,72.5,29.82,North,0,0.0,3.0,82,0.00,,,0.21,WUHU21623XXSP,2013-06-13 21:32:00,
2013-06-13 17:37:00,78.1,72.1,29.83,North,0,0.0,3.0,82,0.00,,,0.21,WUHU21623XXSP,2013-06-13 21:37:00,
2013-06-13 17:42:00,77.7,72.1,29.84,WNW,292,0.0,0.0,83,0.00,,,0.21,WUHU21623XXSP,2013-06-13 21:42:00,
2013-06-13 17:47:00,77.5,72.0,29.84,North,0,0.0,0.0,83,0.00,,,0.21,WUHU21623XXSP,2013-06-13 21:47:00,
2013-06-13 17:52:00,77.4,71.1,29.84,WNW,292,0.9,3.3,81,0.00,,,0.21,WUHU21623XXSP,2013-06-13 21:52:00,
2013-06-13 17:57:00,77.2,70.9,29.84,North,0,2.3,3.3,81,0.00,,,0.21,WUHU21623XXSP,2013-06-13 21:57:00,
2013-06-13 18:02:00,77.5,70.5,29.84,WNW,292,0.0,2.7,79,0.00,,,0.21,WUHU21623XXSP,2013-06-13 22:02:00,
2013-06-13 18:07:00,77.2,70.5,29.84,WNW,292,1.7,2.7,80,0.00,,,0.21,WUHU21623XXSP,2013-06-13 22:07:00,
2013-06-13 18:12:00,77.2,70.5,29.83,WNW,292,1.4,1.9,80,0.00,,,0.21,WUHU21623XXSP,2013-06-13 22:12:00,
2013-06-13 18:17:00,76.8,70.2,29.84,WNW,292,2.1,2.4,80,0.00,,,0.21,WUHU21623XXSP,2013-06-13 22:17:00,
2013-06-13 18:22:00,77.0,69.2,29.84,North,0,1.4,2.4,77,0.00,,,0.21,WUHU21623XXSP,2013-06-13 22:22:00,
2013-06-13 18:27:00,77.4,69.5,29.84,WNW,292,0.0,3.3,77,0.00,,,0.21,WUHU21623XXSP,2013-06-13 22:27:00,
2013-06-13 18:32:00,77.4,69.9,29.84,West,270,0.0,3.3,78,0.00,,,0.21,WUHU21623XXSP,2013-06-13 22:32:00,
2013-06-13 18:37:00,77.2,69.4,29.84,North,0,0.0,1.7,77,0.00,,,0.21,WUHU21623XXSP,2013-06-13 22:37:00,
2013-06-13 18:42:00,77.2,69.7,29.84,West,270,0.0,1.7,78,0.00,,,0.21,WUHU21623XXSP,2013-06-13 22:42:00,
2013-06-13 18:47:00,77.7,70.7,29.85,NNE,22,0.0,1.7,79,0.00,,,0.21,WUHU21623XXSP,2013-06-13 22:47:00,
2013-06-13 18:52:00,77.7,70.3,29.85,West,270,0.0,1.7,78,0.00,,,0.21,WUHU21623XXSP,2013-06-13 22:52:00,
2013-06-13 18:58:00,78.1,71.0,29.85,WNW,292,0.0,0.0,79,0.00,,,0.21,WUHU21623XXSP,2013-06-13 22:58:00,
2013-06-13 19:03:00,77.9,69.7,29.85,East,90,0.0,0.0,76,0.00,,,0.21,WUHU21623XXSP,2013-06-13 23:03:00,
2013-06-13 19:08:00,77.7,69.1,29.85,North,0,0.0,0.0,75,0.00,,,0.21,WUHU21623XXSP,2013-06-13 23:08:00,
2013-06-13 19:13:00,77.0,68.8,29.85,North,0,0.0,0.0,76,0.00,,,0.21,WUHU21623XXSP,2013-06-13 23:13:00,
2013-06-13 19:18:00,76.6,68.9,29.85,WNW,292,0.0,0.0,77,0.00,,,0.21,WUHU21623XXSP,2013-06-13 23:18:00,
2013-06-13 19:23:00,76.3,69.3,29.85,WNW,292,0.0,0.0,79,0.00,,,0.21,WUHU21623XXSP,2013-06-13 23:23:00,
2013-06-13 19:28:00,75.9,68.6,29.84,WNW,292,0.0,0.0,78,0.00,,,0.21,WUHU21623XXSP,2013-06-13 23:28:00,
2013-06-13 19:33:00,75.7,69.2,29.85,WNW,292,0.0,0.0,80,0.00,,,0.21,WUHU21623XXSP,2013-06-13 23:33:00,
2013-06-13 19:38:00,75.7,69.2,29.85,WNW,292,0.0,0.0,80,0.00,,,0.21,WUHU21623XXSP,2013-06-13 23:38:00,
2013-06-13 19:43:00,75.6,69.0,29.85,WNW,292,0.0,0.0,80,0.00,,,0.21,WUHU21623XXSP,2013-06-13 23:43:00,
2013-06-13 19:48:00,75.6,69.4,29.85,West,270,0.0,0.0,81,0.00,,,0.21,WUHU21623XXSP,2013-06-13 23:48:00,
2013-06-13 19:53:00,75.6,69.4,29.85,WNW,292,0.0,0.0,81,0.00,,,0.21,WUHU21623XXSP,2013-06-13 23:53:00,
2013-06-13 19:58:00,75.6,69.4,29.85,WNW,292,0.0,0.0,81,0.00,,,0.21,WUHU21623XXSP,2013-06-13 23:58:00,
2013-06-13 20:03:00,75.6,68.6,29.85,NNE,22,0.0,0.0,79,0.00,,,0.21,WUHU21623XXSP,2013-06-14 00:03:00,
2013-06-13 20:08:00,75.6,68.6,29.85,West,270,0.0,0.0,79,0.00,,,0.21,WUHU21623XXSP,2013-06-14 00:08:00,
2013-06-13 20:13:00,75.4,68.5,29.85,WNW,292,0.0,0.0,79,0.00,,,0.21,WUHU21623XXSP,2013-06-14 00:13:00,
2013-06-13 20:18:00,75.0,68.5,29.85,NNE,22,0.0,0.0,80,0.00,,,0.21,WUHU21623XXSP,2013-06-14 00:18:00,
2013-06-13 20:23:00,74.8,68.7,29.85,WNW,292,0.0,0.0,81,0.00,,,0.21,WUHU21623XXSP,2013-06-14 00:23:00,
2013-06-13 20:28:00,74.5,68.3,29.85,West,270,0.0,0.0,81,0.00,,,0.21,WUHU21623XXSP,2013-06-14 00:28:00,
2013-06-13 20:33:00,74.1,68.0,29.86,WNW,292,1.7,1.9,81,0.00,,,0.21,WUHU21623XXSP,2013-06-14 00:33:00,
2013-06-13 20:38:00,73.9,68.1,29.86,WNW,292,0.0,1.9,82,0.00,,,0.21,WUHU21623XXSP,2013-06-14 00:38:00,
2013-06-13 20:43:00,73.8,68.3,29.86,WNW,292,0.0,1.9,83,0.00,,,0.21,WUHU21623XXSP,2013-06-14 00:43:00,
2013-06-13 20:48:00,73.6,67.8,29.87,North,0,0.0,0.0,82,0.00,,,0.21,WUHU21623XXSP,2013-06-14 00:48:00,
2013-06-13 20:53:00,73.6,67.8,29.87,WNW,292,0.0,0.0,82,0.00,,,0.21,WUHU21623XXSP,2013-06-14 00:53:00,
2013-06-13 20:58:00,73.4,67.6,29.87,WNW,292,0.0,0.0,82,0.00,,,0.21,WUHU21623XXSP,2013-06-14 00:58:00,
2013-06-13 21:03:00,73.2,67.1,29.88,WNW,292,0.0,0.0,81,0.00,,,0.21,WUHU21623XXSP,2013-06-14 01:03:00,
2013-06-13 21:08:00,73.2,67.1,29.88,West,270,0.0,0.0,81,0.00,,,0.21,WUHU21623XXSP,2013-06-14 01:08:00,
2013-06-13 21:13:00,73.2,67.1,29.88,North,0,0.0,0.0,81,0.00,,,0.21,WUHU21623XXSP,2013-06-14 01:13:00,
2013-06-13 21:18:00,73.2,66.7,29.88,West,270,0.0,0.0,80,0.00,,,0.21,WUHU21623XXSP,2013-06-14 01:18:00,
2013-06-13 21:23:00,73.0,66.9,29.88,North,0,0.0,0.0,81,0.00,,,0.21,WUHU21623XXSP,2013-06-14 01:23:00,
2013-06-13 21:28:00,72.9,67.1,29.88,WNW,292,0.0,0.0,82,0.00,,,0.21,WUHU21623XXSP,2013-06-14 01:28:00,
2013-06-13 21:33:00,72.5,66.7,29.89,WNW,292,0.0,0.0,82,0.00,,,0.21,WUHU21623XXSP,2013-06-14 01:33:00,
2013-06-13 21:38:00,72.3,66.5,29.89,West,270,0.0,0.0,82,0.00,,,0.21,WUHU21623XXSP,2013-06-14 01:38:00,
2013-06-13 21:43:00,72.3,66.2,29.89,West,270,0.0,0.0,81,0.00,,,0.21,WUHU21623XXSP,2013-06-14 01:43:00,
2013-06-13 21:48:00,72.3,66.2,29.90,West,270,0.0,0.0,81,0.00,,,0.21,WUHU21623XXSP,2013-06-14 01:48:00,
2013-06-13 21:53:00,72.3,66.5,29.90,NNE,22,0.0,0.0,82,0.00,,,0.21,WUHU21623XXSP,2013-06-14 01:53:00,
2013-06-13 21:58:00,72.3,66.5,29.90,WNW,292,0.0,0.0,82,0.00,,,0.21,WUHU21623XXSP,2013-06-14 01:58:00,
2013-06-13 22:04:00,72.3,66.9,29.91,West,270,0.0,0.0,83,0.00,,,0.21,WUHU21623XXSP,2013-06-14 02:04:00,
2013-06-13 22:09:00,72.3,66.9,29.91,WNW,292,0.0,0.0,83,0.00,,,0.21,WUHU21623XXSP,2013-06-14 02:09:00,
2013-06-13 22:14:00,72.1,67.0,29.91,West,270,0.0,0.0,84,0.00,,,0.21,WUHU21623XXSP,2013-06-14 02:14:00,
2013-06-13 22:19:00,72.0,66.5,29.91,West,270,0.0,0.0,83,0.00,,,0.21,WUHU21623XXSP,2013-06-14 02:19:00,
2013-06-13 22:24:00,72.0,66.8,29.91,North,0,0.0,0.0,84,0.00,,,0.21,WUHU21623XXSP,2013-06-14 02:24:00,
2013-06-13 22:29:00,71.8,66.3,29.91,West,270,0.0,0.0,83,0.00,,,0.21,WUHU21623XXSP,2013-06-14 02:29:00,
2013-06-13 22:34:00,71.8,66.3,29.91,West,270,0.0,0.0,83,0.00,,,0.21,WUHU21623XXSP,2013-06-14 02:34:00,
2013-06-13 22:39:00,71.8,66.0,29.91,WNW,292,0.0,0.0,82,0.00,,,0.21,WUHU21623XXSP,2013-06-14 02:39:00,
2013-06-13 22:44:00,71.8,66.3,29.91,North,0,0.0,0.0,83,0.00,,,0.21,WUHU21623XXSP,2013-06-14 02:44:00,
2013-06-13 22:49:00,71.8,66.7,29.91,North,0,0.0,0.0,84,0.00,,,0.21,WUHU21623XXSP,2013-06-14 02:49:00,
2013-06-13 22:54:00,72.0,66.5,29.91,WNW,292,0.0,0.0,83,0.00,,,0.21,WUHU21623XXSP,2013-06-14 02:54:00,
2013-06-13 22:59:00,72.1,66.7,29.91,North,0,1.2,1.3,83,0.00,,,0.21,WUHU21623XXSP,2013-06-14 02:59:00,
2013-06-13 23:04:00,72.3,66.5,29.91,WNW,292,0.0,1.7,82,0.00,,,0.21,WUHU21623XXSP,2013-06-14 03:04:00,
2013-06-13 23:09:00,72.3,66.5,29.91,North,0,0.0,1.7,82,0.00,,,0.21,WUHU21623XXSP,2013-06-14 03:09:00,
2013-06-13 23:14:00,72.3,66.5,29.92,North,0,1.4,1.7,82,0.00,,,0.21,WUHU21623XXSP,2013-06-14 03:14:00,
2013-06-13 23:19:00,72.3,66.2,29.91,WNW,292,0.0,1.9,81,0.00,,,0.21,WUHU21623XXSP,2013-06-14 03:19:00,
2013-06-13 23:24:00,72.1,66.3,29.92,West,270,0.0,1.9,82,0.00,,,0.21,WUHU21623XXSP,2013-06-14 03:24:00,
2013-06-13 23:29:00,72.0,66.2,29.93,West,270,0.0,1.7,82,0.00,,,0.21,WUHU21623XXSP,2013-06-14 03:29:00,
2013-06-13 23:34:00,71.8,66.3,29.93,North,0,0.0,1.7,83,0.00,,,0.21,WUHU21623XXSP,2013-06-14 03:34:00,
2013-06-13 23:39:00,71.4,66.0,29.93,North,0,0.0,0.0,83,0.00,,,0.21,WUHU21623XXSP,2013-06-14 03:39:00,
2013-06-13 23:44:00,71.4,66.0,29.93,North,0,2.1,2.4,83,0.00,,,0.21,WUHU21623XXSP,2013-06-14 03:44:00,
2013-06-13 23:49:00,72.0,66.5,29.93,North,0,0.0,2.4,83,0.00,,,0.21,WUHU21623XXSP,2013-06-14 03:49:00,
2013-06-13 23:54:00,72.1,65.7,29.93,WNW,292,0.0,2.4,80,0.00,,,0.21,WUHU21623XXSP,2013-06-14 03:54:00,
2013-06-13 23:59:00,72.1,66.0,29.94,North,0,0.0,0.0,81,0.00,,,0.21,WUHU21623XXSP,2013-06-14 03:59:00,